Time;durP1;ratioP1;P1;durP2;ratioP2;P2;SDS_P1;SDS_P2;PMS_P1;PMS_P2;Temp;Humidity;BMP_temperature;BMP_pressure;BME280_temperature;BME280_humidity;BME280_pressure;Samples;Min_cycle;Max_cycle;Signal;HPM_P1;HPM_P2
2024/03/27 00:00:13;;;;;;;45.80;25.80;;;;;;;1.87;69.32;95734.33;107661;1241;98821;-81
2024/03/27 00:02:59;;;;;;;49.80;27.90;;;;;;;1.88;69.48;95732.77;107568;1249;98413;-77
2024/03/27 00:05:26;;;;;;;52.60;27.30;;;;;;;1.87;69.59;95738.87;107604;1242;99676;-77
2024/03/27 00:07:53;;;;;;;51.60;26.80;;;;;;;1.85;69.82;95737.55;107595;1250;97908;-77
2024/03/27 00:10:22;;;;;;;53.40;28.40;;;;;;;1.79;69.77;95735.60;107602;1252;97948;-77
2024/03/27 00:12:49;;;;;;;46.80;27.00;;;;;;;1.79;69.97;95726.56;107351;1241;99144;-75
2024/03/27 00:15:15;;;;;;;39.50;22.60;;;;;;;1.81;70.03;95726.73;107459;1251;97882;-75
2024/03/27 00:17:42;;;;;;;36.70;21.80;;;;;;;1.82;69.94;95728.61;107593;1238;97998;-79
2024/03/27 00:20:09;;;;;;;39.60;21.30;;;;;;;1.80;69.97;95720.48;107561;1249;99820;-79
2024/03/27 00:22:35;;;;;;;38.00;20.80;;;;;;;1.81;70.03;95717.35;107552;1242;97895;-79
2024/03/27 00:25:03;;;;;;;35.70;19.90;;;;;;;1.81;69.97;95716.29;107597;1241;98003;-79
2024/03/27 00:27:30;;;;;;;38.40;19.30;;;;;;;1.81;70.10;95709.73;107694;1241;97971;-79
2024/03/27 00:29:56;;;;;;;42.70;21.40;;;;;;;1.77;70.10;95717.59;107618;1241;99796;-79
2024/03/27 00:32:22;;;;;;;39.60;20.30;;;;;;;1.74;70.16;95715.35;107543;1249;98034;-79
2024/03/27 00:34:50;;;;;;;38.10;21.30;;;;;;;1.74;70.28;95716.46;107547;1242;99572;-79
2024/03/27 00:37:16;;;;;;;37.50;19.30;;;;;;;1.74;70.32;95713.92;107591;1241;98944;-79
2024/03/27 00:39:42;;;;;;;40.20;20.50;;;;;;;1.73;70.27;95717.11;107626;1241;97915;-79
2024/03/27 00:42:09;;;;;;;41.40;23.10;;;;;;;1.71;70.21;95714.73;107620;1251;97990;-79
2024/03/27 00:44:35;;;;;;;47.20;24.40;;;;;;;1.69;70.43;95708.59;107608;1238;98384;-79
2024/03/27 00:47:01;;;;;;;47.80;26.10;;;;;;;1.65;70.38;95707.01;107619;1241;98509;-82
2024/03/27 00:49:28;;;;;;;44.10;24.90;;;;;;;1.63;70.64;95710.40;107612;1248;98917;-78
2024/03/27 00:51:54;;;;;;;47.70;25.90;;;;;;;1.65;70.60;95717.28;107657;1241;97897;-77
2024/03/27 00:54:21;;;;;;;47.40;25.90;;;;;;;1.62;70.59;95712.43;107636;1242;98380;-77
2024/03/27 00:56:47;;;;;;;49.30;26.80;;;;;;;1.60;70.68;95715.21;107617;1241;98504;-77
2024/03/27 00:59:13;;;;;;;43.30;24.00;;;;;;;1.56;70.76;95710.52;107568;1241;97891;-77
2024/03/27 01:01:40;;;;;;;41.90;22.30;;;;;;;1.54;70.77;95709.26;107642;1236;98827;-77
2024/03/27 01:04:06;;;;;;;35.50;21.20;;;;;;;1.51;70.70;95707.71;107596;1249;99147;-77
2024/03/27 01:06:33;;;;;;;38.70;21.10;;;;;;;1.46;70.83;95698.92;107571;1243;99175;-77
2024/03/27 01:09:02;;;;;;;29.40;16.70;;;;;;;1.36;70.94;95688.89;107637;1246;99135;-77
2024/03/27 01:11:29;;;;;;;34.50;17.90;;;;;;;1.36;70.99;95694.41;107433;1252;99969;-77
2024/03/27 01:13:58;;;;;;;32.20;17.80;;;;;;;1.38;71.09;95692.54;107581;1250;99124;-77
2024/03/27 01:16:25;;;;;;;31.90;17.30;;;;;;;1.40;71.27;95689.54;107549;1241;98602;-82
2024/03/27 01:18:51;;;;;;;35.50;18.90;;;;;;;1.41;71.12;95690.52;107561;1249;99129;-82
2024/03/27 01:21:18;;;;;;;32.80;18.80;;;;;;;1.40;71.11;95685.45;107655;1249;97912;-82
2024/03/27 01:23:44;;;;;;;31.00;18.00;;;;;;;1.36;71.10;95682.02;107568;1241;98586;-82
2024/03/27 01:26:10;;;;;;;29.30;16.80;;;;;;;1.33;71.06;95682.41;107609;1241;97902;-82
2024/03/27 01:28:37;;;;;;;29.70;17.70;;;;;;;1.30;71.11;95685.23;107563;1245;97909;-81
2024/03/27 01:31:04;;;;;;;30.70;17.80;;;;;;;1.28;71.43;95676.99;107368;1241;97913;-81
2024/03/27 01:33:30;;;;;;;30.20;17.60;;;;;;;1.28;71.33;95677.27;107592;1236;98619;-82
2024/03/27 01:35:56;;;;;;;28.70;16.60;;;;;;;1.27;71.56;95669.01;107622;1252;98418;-82
2024/03/27 01:38:23;;;;;;;28.40;16.50;;;;;;;1.23;71.47;95670.40;107608;1239;97912;-82
2024/03/27 01:40:50;;;;;;;27.30;15.70;;;;;;;1.19;71.47;95671.55;107667;1241;97944;-82
2024/03/27 01:43:16;;;;;;;27.10;16.00;;;;;;;1.18;71.48;95671.21;107561;1246;97983;-82
2024/03/27 01:45:42;;;;;;;26.00;15.00;;;;;;;1.17;71.53;95659.91;107612;1241;98424;-82
2024/03/27 01:48:09;;;;;;;26.40;14.70;;;;;;;1.14;71.55;95660.09;107641;1251;98673;-82
2024/03/27 01:50:36;;;;;;;27.70;15.00;;;;;;;1.13;71.66;95658.57;107630;1250;97895;-81
2024/03/27 01:53:03;;;;;;;24.00;14.00;;;;;;;1.15;71.67;95656.42;107655;1248;98803;-82
2024/03/27 01:55:30;;;;;;;21.90;13.60;;;;;;;1.17;71.73;95653.73;107617;1241;98351;-82
2024/03/27 01:57:57;;;;;;;23.40;13.60;;;;;;;1.10;71.54;95644.78;107590;1241;99023;-82
2024/03/27 02:00:25;;;;;;;23.60;14.50;;;;;;;1.02;71.71;95635.98;107627;1249;98320;-81
2024/03/27 02:02:52;;;;;;;19.90;12.80;;;;;;;1.01;71.91;95638.30;107594;1248;97979;-82
2024/03/27 02:05:18;;;;;;;20.20;12.40;;;;;;;1.00;72.05;95641.98;107625;1249;97909;-81
2024/03/27 02:07:45;;;;;;;24.80;15.40;;;;;;;0.98;71.99;95643.39;107549;1241;99129;-82
2024/03/27 02:10:11;;;;;;;28.00;15.40;;;;;;;0.98;72.06;95637.79;107551;1242;99236;-82
2024/03/27 02:12:40;;;;;;;24.90;16.10;;;;;;;0.99;72.11;95630.20;107560;1242;98930;-82
2024/03/27 02:15:08;;;;;;;25.70;14.70;;;;;;;0.94;72.13;95621.34;107586;1248;99047;-82
2024/03/27 02:17:35;;;;;;;26.20;15.20;;;;;;;0.89;72.28;95623.32;107595;1248;98435;-79
2024/03/27 02:20:05;;;;;;;26.30;15.60;;;;;;;0.85;72.32;95624.55;107672;1239;97918;-79
2024/03/27 02:22:33;;;;;;;28.00;16.50;;;;;;;0.83;72.36;95621.29;107675;1239;101283;-79
2024/03/27 02:25:41;;;;;;;24.20;17.20;;;;;;;0.85;72.39;95621.00;107604;1240;99831;-79
2024/03/27 02:28:08;;;;;;;28.50;18.00;;;;;;;0.88;72.40;95616.80;106715;1257;113871;-75
2024/03/27 02:30:34;;;;;;;31.50;19.00;;;;;;;0.88;72.43;95613.02;106763;1257;97981;-76
2024/03/27 02:33:01;;;;;;;37.40;23.20;;;;;;;0.88;72.50;95610.55;107179;1244;97987;-77
2024/03/27 02:35:27;;;;;;;35.50;22.00;;;;;;;0.88;72.44;95614.80;107656;1240;97963;-77
2024/03/27 02:37:53;;;;;;;36.00;22.10;;;;;;;0.86;72.36;95613.64;107612;1250;98940;-77
2024/03/27 02:40:20;;;;;;;24.60;15.10;;;;;;;0.82;72.36;95606.69;107640;1248;99017;-76
2024/03/27 02:42:46;;;;;;;24.00;14.80;;;;;;;0.77;72.30;95600.10;107622;1245;97874;-77
2024/03/27 02:45:12;;;;;;;36.00;20.60;;;;;;;0.75;72.34;95599.71;107699;1249;97922;-76
2024/03/27 02:47:39;;;;;;;34.90;19.90;;;;;;;0.74;72.47;95597.17;107406;1241;97951;-77
2024/03/27 02:50:05;;;;;;;34.10;21.20;;;;;;;0.73;72.48;95591.21;107620;1248;97979;-77
2024/03/27 02:52:32;;;;;;;35.70;20.20;;;;;;;0.67;72.52;95590.04;107457;1248;98357;-77
2024/03/27 02:54:58;;;;;;;33.70;18.70;;;;;;;0.59;72.63;95587.21;107673;1241;97896;-77
2024/03/27 02:57:24;;;;;;;33.90;19.20;;;;;;;0.58;72.79;95586.87;107655;1241;99160;-77
2024/03/27 02:59:51;;;;;;;30.80;18.30;;;;;;;0.57;72.78;95589.73;107639;1241;99017;-76
2024/03/27 03:02:17;;;;;;;26.70;17.70;;;;;;;0.56;72.78;95584.56;107610;1241;97971;-75
2024/03/27 03:04:43;;;;;;;23.20;14.60;;;;;;;0.56;72.72;95581.91;107681;1251;97902;-74
2024/03/27 03:07:10;;;;;;;24.20;14.40;;;;;;;0.53;72.76;95576.78;107588;1241;98804;-75
2024/03/27 03:12:24;;;;;;;24.10;13.90;;;;;;;0.47;72.96;95562.20;109117;1236;1004496;-82
2024/03/27 03:14:51;;;;;;;21.30;13.50;;;;;;;0.44;73.14;95553.89;107745;1238;97967;-80
2024/03/27 03:17:17;;;;;;;22.60;13.00;;;;;;;0.40;73.11;95544.51;107753;1240;99156;-80
2024/03/27 03:19:43;;;;;;;22.70;14.70;;;;;;;0.39;73.09;95545.55;107856;1237;98352;-80
2024/03/27 03:22:10;;;;;;;25.10;15.00;;;;;;;0.41;73.11;95551.13;107753;1239;103356;-80
2024/03/27 03:24:36;;;;;;;24.10;15.00;;;;;;;0.46;73.25;95546.73;107785;1239;97915;-80
2024/03/27 03:27:02;;;;;;;27.70;14.70;;;;;;;0.49;73.27;95539.33;107769;1239;97922;-80
2024/03/27 03:29:29;;;;;;;21.00;13.00;;;;;;;0.48;73.24;95533.26;107848;1240;98059;-81
2024/03/27 03:31:57;;;;;;;26.90;13.60;;;;;;;0.44;73.26;95525.83;107823;1240;103186;-81
2024/03/27 03:34:24;;;;;;;21.40;13.30;;;;;;;0.42;73.34;95515.81;107716;1239;101239;-81
2024/03/27 03:36:51;;;;;;;21.90;14.00;;;;;;;0.41;73.41;95505.30;107671;1237;98421;-81
2024/03/27 03:39:17;;;;;;;24.00;14.70;;;;;;;0.40;73.44;95507.05;107663;1243;97913;-80
2024/03/27 03:41:44;;;;;;;23.80;14.20;;;;;;;0.36;73.34;95505.54;107802;1241;97924;-81
2024/03/27 03:44:10;;;;;;;21.20;12.00;;;;;;;0.34;73.49;95498.74;107851;1249;98554;-81
2024/03/27 03:46:37;;;;;;;23.20;15.50;;;;;;;0.34;73.37;95496.74;107774;1250;106301;-80
2024/03/27 03:49:03;;;;;;;21.60;13.20;;;;;;;0.33;73.48;95483.80;107724;1239;99165;-87
2024/03/27 03:51:29;;;;;;;26.60;14.10;;;;;;;0.29;73.58;95474.61;107781;1239;98011;-88
2024/03/27 03:53:56;;;;;;;28.70;14.30;;;;;;;0.27;73.57;95470.92;107869;1247;98844;-87
2024/03/27 03:56:23;;;;;;;27.50;14.30;;;;;;;0.25;73.65;95471.36;107734;1249;99890;-88
2024/03/27 03:58:49;;;;;;;23.20;14.20;;;;;;;0.25;73.72;95469.89;107746;1248;97926;-88
2024/03/27 04:01:15;;;;;;;19.00;11.50;;;;;;;0.24;73.71;95463.11;107703;1238;97958;-87
2024/03/27 04:03:42;;;;;;;15.80;9.20;;;;;;;0.25;73.67;95449.20;107863;1239;99145;-88
2024/03/27 04:06:08;;;;;;;15.70;7.90;;;;;;;0.25;73.94;95453.31;107570;1240;100076;-89
2024/03/27 04:08:34;;;;;;;14.30;9.50;;;;;;;0.24;73.85;95459.68;107771;1239;98813;-87
2024/03/27 04:11:04;;;;;;;16.50;8.90;;;;;;;0.26;73.87;95457.81;107770;1248;99143;-87
2024/03/27 04:13:30;;;;;;;17.90;10.20;;;;;;;0.31;73.92;95452.55;107786;1239;99058;-86
2024/03/27 04:15:56;;;;;;;16.10;11.00;;;;;;;0.35;73.88;95452.08;107685;1241;98009;-86
2024/03/27 04:18:23;;;;;;;20.20;11.50;;;;;;;0.39;73.82;95458.29;107781;1248;99036;-86
2024/03/27 04:20:49;;;;;;;18.30;10.20;;;;;;;0.43;73.93;95453.67;107744;1240;98423;-86
2024/03/27 04:23:16;;;;;;;13.00;8.20;;;;;;;0.42;73.95;95443.90;107765;1249;97977;-86
2024/03/27 04:25:51;;;;;;;13.90;8.90;;;;;;;0.39;73.82;95439.35;107709;1243;99039;-77
2024/03/27 04:28:18;;;;;;;13.30;8.30;;;;;;;0.36;73.83;95436.11;107748;1244;99412;-80
2024/03/27 04:30:44;;;;;;;12.50;9.70;;;;;;;0.35;73.83;95427.27;107748;1239;97940;-80
2024/03/27 04:33:13;;;;;;;15.00;9.30;;;;;;;0.29;73.87;95420.56;107844;1239;97963;-80
2024/03/27 04:35:39;;;;;;;15.90;9.90;;;;;;;0.28;73.98;95418.46;107804;1239;97925;-80
2024/03/27 04:38:06;;;;;;;15.00;9.10;;;;;;;0.28;74.00;95419.89;107758;1237;97912;-80
2024/03/27 04:40:32;;;;;;;16.00;9.50;;;;;;;0.29;74.06;95417.77;107830;1249;99229;-80
2024/03/27 04:42:58;;;;;;;13.70;9.40;;;;;;;0.27;73.94;95412.67;107857;1243;98347;-80
2024/03/27 04:45:25;;;;;;;14.80;9.90;;;;;;;0.24;74.00;95409.76;107666;1237;99160;-89
2024/03/27 04:47:51;;;;;;;14.70;9.80;;;;;;;0.23;74.09;95408.86;107790;1237;97941;-88
2024/03/27 04:50:18;;;;;;;14.00;9.50;;;;;;;0.23;74.24;95410.08;107810;1241;97909;-88
2024/03/27 04:52:44;;;;;;;20.50;10.40;;;;;;;0.21;74.08;95408.40;107782;1248;98367;-89
2024/03/27 04:55:11;;;;;;;18.20;10.80;;;;;;;0.22;74.23;95405.55;107796;1240;97919;-88
2024/03/27 04:57:37;;;;;;;16.10;10.00;;;;;;;0.24;74.34;95410.73;107747;1239;99134;-88
2024/03/27 05:00:06;;;;;;;17.50;10.50;;;;;;;0.25;74.30;95415.46;107786;1241;99256;-89
2024/03/27 05:02:32;;;;;;;18.30;10.00;;;;;;;0.25;74.44;95413.88;107794;1237;98343;-88
2024/03/27 05:04:59;;;;;;;18.00;9.40;;;;;;;0.28;74.50;95415.45;107769;1239;98849;-78
2024/03/27 05:07:25;;;;;;;18.00;11.10;;;;;;;0.33;74.51;95415.85;107439;1240;97922;-89
2024/03/27 05:09:52;;;;;;;26.40;10.60;;;;;;;0.38;74.38;95412.72;107578;1240;98613;-89
2024/03/27 05:12:18;;;;;;;14.80;9.20;;;;;;;0.45;74.59;95412.27;107785;1239;98704;-89
2024/03/27 05:14:44;;;;;;;13.40;9.00;;;;;;;0.49;74.55;95406.89;107775;1239;97923;-88
2024/03/27 05:17:12;;;;;;;15.20;9.70;;;;;;;0.53;74.64;95407.32;107720;1247;99196;-78
2024/03/27 05:19:39;;;;;;;22.50;14.20;;;;;;;0.57;74.65;95407.80;107933;1239;99140;-78
2024/03/27 05:22:06;;;;;;;25.60;16.60;;;;;;;0.59;74.72;95408.46;107911;1239;97941;-77
2024/03/27 05:24:32;;;;;;;34.80;22.90;;;;;;;0.58;74.73;95408.17;107672;1239;98495;-82
2024/03/27 05:26:58;;;;;;;40.80;25.20;;;;;;;0.62;74.77;95414.88;107691;1237;101195;-82
2024/03/27 05:29:25;;;;;;;39.60;25.50;;;;;;;0.67;74.68;95415.84;107769;1248;97993;-81
2024/03/27 05:31:52;;;;;;;37.60;23.80;;;;;;;0.72;74.74;95419.77;107710;1239;98512;-81
2024/03/27 05:34:20;;;;;;;31.00;21.40;;;;;;;0.77;74.77;95433.15;107703;1239;98082;-82
2024/03/27 05:36:46;;;;;;;26.30;17.00;;;;;;;0.79;74.73;95434.67;107745;1239;97950;-81
2024/03/27 05:39:14;;;;;;;24.80;15.90;;;;;;;0.81;74.66;95436.00;107763;1245;98819;-81
2024/03/27 05:41:42;;;;;;;27.10;16.90;;;;;;;0.85;74.76;95435.14;107696;1248;99250;-81
2024/03/27 05:44:10;;;;;;;26.60;16.00;;;;;;;0.86;74.78;95431.42;107470;1241;98450;-81
2024/03/27 05:46:38;;;;;;;24.80;16.20;;;;;;;0.90;74.78;95431.45;107714;1237;101941;-81
2024/03/27 05:49:04;;;;;;;26.90;16.60;;;;;;;0.94;74.79;95431.23;107769;1241;98055;-81
2024/03/27 05:51:33;;;;;;;23.50;14.90;;;;;;;1.00;74.81;95442.15;107808;1249;98387;-81
2024/03/27 05:54:00;;;;;;;23.70;13.60;;;;;;;1.05;74.75;95430.84;107792;1239;98005;-81
2024/03/27 05:56:26;;;;;;;19.30;11.50;;;;;;;1.11;74.71;95424.23;107799;1239;97922;-81
2024/03/27 05:58:53;;;;;;;16.10;10.00;;;;;;;1.18;74.70;95421.83;107752;1240;97999;-80
2024/03/27 06:01:19;;;;;;;17.40;10.90;;;;;;;1.25;74.76;95424.27;107635;1245;98002;-82
2024/03/27 06:03:50;;;;;;;18.30;10.60;;;;;;;1.31;74.67;95419.32;107849;1240;98012;-82
2024/03/27 06:06:18;;;;;;;16.60;10.80;;;;;;;1.37;74.78;95425.79;107764;1244;98368;-82
2024/03/27 06:08:47;;;;;;;17.80;9.90;;;;;;;1.42;74.77;95428.02;107772;1239;102516;-81
2024/03/27 06:11:14;;;;;;;16.90;10.30;;;;;;;1.47;74.73;95424.45;107813;1239;100238;-81
2024/03/27 06:13:40;;;;;;;20.30;12.10;;;;;;;1.54;74.76;95423.94;107723;1248;98825;-81
2024/03/27 06:16:07;;;;;;;21.80;12.90;;;;;;;1.60;74.75;95424.95;107771;1237;98813;-77
2024/03/27 06:18:54;;;;;;;26.50;15.20;;;;;;;1.68;74.94;95428.15;107837;1250;98435;-77
2024/03/27 06:21:21;;;;;;;37.10;20.30;;;;;;;1.76;75.25;95433.44;107775;1248;103388;-78
2024/03/27 06:23:48;;;;;;;30.90;19.10;;;;;;;1.83;75.17;95434.16;107908;1239;100279;-78
2024/03/27 06:26:15;;;;;;;35.80;18.90;;;;;;;1.90;75.15;95437.09;107661;1250;97938;-79
2024/03/27 06:28:41;;;;;;;29.40;17.00;;;;;;;2.00;74.98;95433.52;107724;1248;97939;-78
2024/03/27 06:31:08;;;;;;;45.10;23.10;;;;;;;2.12;74.82;95431.81;107837;1240;98057;-78
2024/03/27 06:33:35;;;;;;;50.00;28.10;;;;;;;2.24;74.78;95433.04;107851;1241;100494;-78
2024/03/27 06:36:01;;;;;;;68.60;33.20;;;;;;;2.35;74.78;95434.73;107862;1248;97948;-78
2024/03/27 06:38:28;;;;;;;67.10;28.80;;;;;;;2.43;74.51;95431.34;107862;1248;99275;-78
2024/03/27 06:40:57;;;;;;;45.30;23.90;;;;;;;2.51;74.21;95435.72;107962;1239;99144;-79
2024/03/27 06:43:25;;;;;;;38.30;21.70;;;;;;;2.63;74.11;95435.17;107840;1241;99801;-78
2024/03/27 06:45:52;;;;;;;31.40;16.90;;;;;;;2.77;74.25;95431.65;107927;1249;99787;-78
2024/03/27 06:48:20;;;;;;;23.80;14.50;;;;;;;2.93;74.33;95431.38;107836;1245;97922;-78
2024/03/27 06:50:53;;;;;;;21.50;13.70;;;;;;;3.12;74.36;95428.55;107899;1244;97978;-76
2024/03/27 06:53:21;;;;;;;22.20;14.10;;;;;;;3.31;74.28;95430.25;107888;1248;103315;-77
2024/03/27 06:55:47;;;;;;;30.60;14.40;;;;;;;3.50;74.22;95431.77;107831;1249;98003;-77
2024/03/27 06:58:13;;;;;;;24.80;13.70;;;;;;;3.68;74.12;95427.20;107655;1248;97941;-77
2024/03/27 07:00:41;;;;;;;24.10;12.50;;;;;;;3.87;74.15;95426.49;107984;1244;97993;-89
2024/03/27 07:03:07;;;;;;;16.50;9.80;;;;;;;4.12;74.12;95419.98;107417;1250;103418;-82
2024/03/27 07:05:37;;;;;;;16.10;9.00;;;;;;;4.46;74.02;95412.63;107748;1241;99004;-82
2024/03/27 07:08:04;;;;;;;16.20;9.40;;;;;;;4.73;73.42;95405.59;107782;1240;100171;-81
2024/03/27 07:10:30;;;;;;;19.20;9.30;;;;;;;4.99;72.97;95403.33;107707;1239;98008;-81
2024/03/27 07:12:57;;;;;;;16.40;7.90;;;;;;;5.19;72.96;95397.15;107749;1241;98534;-82
2024/03/27 07:15:23;;;;;;;17.50;8.80;;;;;;;5.37;72.83;95395.80;107845;1241;97936;-83
2024/03/27 07:17:50;;;;;;;16.40;7.10;;;;;;;5.57;72.49;95393.91;107674;1244;99750;-82
2024/03/27 07:20:16;;;;;;;20.90;9.70;;;;;;;5.87;72.45;95397.94;108039;1241;97912;-82
2024/03/27 07:22:42;;;;;;;20.10;10.20;;;;;;;6.15;72.29;95398.96;107802;1240;97931;-82
2024/03/27 07:25:09;;;;;;;19.60;10.40;;;;;;;6.44;71.96;95393.93;107922;1241;97972;-82
2024/03/27 07:27:37;;;;;;;18.90;10.70;;;;;;;6.70;71.82;95390.37;107848;1239;98882;-82
2024/03/27 07:30:04;;;;;;;22.90;10.30;;;;;;;6.97;71.69;95390.41;107867;1239;97881;-82
2024/03/27 07:32:30;;;;;;;17.80;9.50;;;;;;;7.24;71.07;95389.90;107796;1239;97970;-82
2024/03/27 07:34:57;;;;;;;17.40;8.90;;;;;;;7.50;70.41;95389.39;107875;1239;98034;-81
2024/03/27 07:37:23;;;;;;;14.40;7.10;;;;;;;7.81;70.07;95394.38;107836;1239;97969;-88
2024/03/27 07:39:50;;;;;;;14.50;7.00;;;;;;;8.22;69.73;95387.95;107795;1245;97955;-88
2024/03/27 07:42:16;;;;;;;9.50;6.20;;;;;;;8.70;69.53;95384.20;107766;1239;98457;-88
2024/03/27 07:44:42;;;;;;;10.10;5.30;;;;;;;9.24;68.81;95382.04;107557;1239;97843;-88
2024/03/27 07:47:09;;;;;;;17.20;6.40;;;;;;;9.77;68.27;95382.42;107636;1241;98710;-82
2024/03/27 07:49:35;;;;;;;15.10;6.00;;;;;;;10.30;67.48;95380.73;107903;1239;98280;-82
2024/03/27 07:52:01;;;;;;;14.20;7.00;;;;;;;10.81;66.78;95377.45;107553;1241;98520;-81
2024/03/27 07:54:28;;;;;;;13.80;6.50;;;;;;;11.26;66.12;95375.55;107896;1242;97924;-81
2024/03/27 07:57:06;;;;;;;8.00;4.80;;;;;;;11.68;64.48;95373.38;107897;1249;97980;-87
2024/03/27 07:59:33;;;;;;;7.20;4.40;;;;;;;12.07;63.40;95369.06;107625;1242;99654;-88
2024/03/27 08:02:00;;;;;;;9.60;4.70;;;;;;;12.44;62.71;95373.97;107753;1249;97958;-88
2024/03/27 08:04:26;;;;;;;11.00;3.70;;;;;;;12.80;62.70;95366.23;107675;1239;97963;-89
2024/03/27 08:06:53;;;;;;;12.50;3.30;;;;;;;13.21;62.26;95356.42;107738;1239;97925;-89
2024/03/27 08:09:19;;;;;;;9.80;3.10;;;;;;;13.62;61.21;95364.73;107825;1239;98081;-89
2024/03/27 08:11:46;;;;;;;9.00;3.00;;;;;;;13.97;59.99;95362.83;107696;1239;97977;-88
2024/03/27 08:14:12;;;;;;;7.10;3.00;;;;;;;14.29;58.93;95359.71;107777;1240;97834;-88
2024/03/27 08:16:39;;;;;;;8.00;3.00;;;;;;;14.69;59.38;95359.91;107754;1239;98603;-89
2024/03/27 08:19:05;;;;;;;6.30;3.30;;;;;;;15.10;58.36;95354.11;107794;1240;97936;-88
2024/03/27 08:21:31;;;;;;;6.60;3.20;;;;;;;15.47;57.41;95353.67;107714;1244;99154;-88
2024/03/27 08:23:58;;;;;;;6.20;3.10;;;;;;;15.90;56.21;95350.92;107767;1239;97947;-88
2024/03/27 08:26:27;;;;;;;6.00;3.60;;;;;;;16.23;56.11;95350.41;107775;1240;97904;-88
2024/03/27 08:28:53;;;;;;;7.40;2.70;;;;;;;16.58;53.97;95344.02;107796;1247;99189;-87
2024/03/27 08:31:20;;;;;;;5.10;3.10;;;;;;;16.86;54.37;95334.48;107662;1239;99771;-80
2024/03/27 08:33:46;;;;;;;8.10;3.30;;;;;;;17.26;54.33;95333.64;107904;1245;98034;-80
2024/03/27 08:36:13;;;;;;;7.10;3.30;;;;;;;17.66;53.14;95332.23;107893;1248;103466;-82
2024/03/27 08:38:39;;;;;;;6.30;2.80;;;;;;;17.97;52.13;95326.73;107887;1236;99151;-82
2024/03/27 08:41:06;;;;;;;6.80;2.50;;;;;;;18.19;51.85;95326.11;107831;1249;97944;-81
2024/03/27 08:43:32;;;;;;;6.10;2.70;;;;;;;18.47;51.48;95323.63;107860;1249;98779;-83
2024/03/27 08:45:59;;;;;;;6.90;2.60;;;;;;;18.71;50.71;95321.19;107870;1239;97898;-87
2024/03/27 08:48:25;;;;;;;8.70;2.30;;;;;;;18.95;49.98;95321.14;107728;1249;101196;-87
2024/03/27 08:50:52;;;;;;;6.50;2.40;;;;;;;19.14;48.80;95317.80;107645;1242;97915;-87
2024/03/27 08:53:18;;;;;;;4.90;1.90;;;;;;;19.16;47.55;95314.03;107809;1241;97959;-89
2024/03/27 08:55:45;;;;;;;3.50;2.10;;;;;;;19.11;45.62;95313.12;107841;1250;97957;-80
2024/03/27 08:58:11;;;;;;;4.10;2.20;;;;;;;19.00;46.22;95316.02;107909;1241;100528;-81
2024/03/27 09:00:38;;;;;;;4.10;2.20;;;;;;;19.05;46.72;95316.17;107835;1248;98015;-80
2024/03/27 09:03:06;;;;;;;4.20;1.90;;;;;;;19.23;46.77;95321.80;107814;1239;97896;-81
2024/03/27 09:05:32;;;;;;;4.30;1.80;;;;;;;19.41;46.35;95320.02;107947;1242;97924;-81
2024/03/27 09:07:59;;;;;;;4.20;2.80;;;;;;;19.53;45.25;95319.00;107893;1239;98592;-81
2024/03/27 09:10:26;;;;;;;3.10;2.10;;;;;;;19.48;44.64;95319.61;107976;1242;98819;-80
2024/03/27 09:12:52;;;;;;;2.90;1.90;;;;;;;19.43;44.67;95312.80;107916;1239;97904;-81
2024/03/27 09:15:19;;;;;;;4.20;2.30;;;;;;;19.52;44.99;95310.85;107835;1249;97865;-81
2024/03/27 09:17:45;;;;;;;8.40;2.20;;;;;;;19.73;45.48;95307.18;107877;1241;99146;-81
2024/03/27 09:20:11;;;;;;;3.40;2.50;;;;;;;20.01;45.58;95306.09;107934;1241;97937;-82
2024/03/27 09:22:38;;;;;;;2.00;1.40;;;;;;;20.26;44.21;95303.50;107823;1244;99154;-81
2024/03/27 09:25:05;;;;;;;4.80;2.00;;;;;;;20.20;42.50;95305.92;107884;1249;97895;-81
2024/03/27 09:27:34;;;;;;;4.00;1.80;;;;;;;20.09;42.92;95299.80;107893;1247;99695;-81
2024/03/27 09:30:00;;;;;;;2.90;1.70;;;;;;;20.24;42.71;95307.50;107858;1239;97946;-81
2024/03/27 09:32:27;;;;;;;2.90;1.60;;;;;;;20.37;41.81;95302.59;107836;1239;98042;-83
2024/03/27 09:34:55;;;;;;;2.10;1.80;;;;;;;20.38;41.06;95306.21;107808;1240;98031;-83
2024/03/27 09:37:22;;;;;;;2.70;1.60;;;;;;;20.53;42.36;95306.47;107828;1249;99796;-81
2024/03/27 09:39:48;;;;;;;2.10;1.40;;;;;;;20.77;42.84;95303.84;107848;1239;98599;-81
2024/03/27 09:42:16;;;;;;;4.10;1.60;;;;;;;21.02;41.41;95295.27;107928;1248;98014;-81
2024/03/27 09:44:43;;;;;;;2.90;1.30;;;;;;;21.15;40.83;95295.91;107883;1247;97991;-81
2024/03/27 09:47:12;;;;;;;6.10;1.80;;;;;;;21.29;41.04;95295.92;107935;1239;97914;-84
2024/03/27 09:49:39;;;;;;;2.70;1.80;;;;;;;21.42;40.64;95293.09;107892;1239;103561;-82
2024/03/27 09:52:09;;;;;;;4.00;2.20;;;;;;;21.54;40.18;95291.21;107798;1235;97989;-83
2024/03/27 09:54:38;;;;;;;1.50;1.40;;;;;;;21.55;39.86;95292.49;107786;1235;99952;-83
2024/03/27 09:57:04;;;;;;;3.40;1.60;;;;;;;21.51;39.35;95284.98;107878;1241;97986;-83
2024/03/27 09:59:31;;;;;;;4.40;1.80;;;;;;;21.63;40.09;95286.76;107857;1251;99260;-83
2024/03/27 10:02:04;;;;;;;2.80;1.60;;;;;;;21.83;39.61;95286.52;107726;1250;97926;-82
2024/03/27 10:04:30;;;;;;;2.40;1.50;;;;;;;21.94;39.34;95281.61;107867;1242;100461;-82
2024/03/27 10:06:57;;;;;;;4.40;2.00;;;;;;;22.02;39.04;95286.48;107814;1241;97999;-82
2024/03/27 10:09:23;;;;;;;4.70;2.10;;;;;;;22.23;39.55;95281.45;107818;1248;97944;-82
2024/03/27 10:11:49;;;;;;;4.90;2.10;;;;;;;22.59;39.55;95278.91;107848;1243;99073;-82
2024/03/27 10:14:17;;;;;;;2.80;1.80;;;;;;;22.95;39.49;95274.30;107687;1250;100955;-82
2024/03/27 10:16:44;;;;;;;8.60;2.10;;;;;;;23.22;39.06;95268.77;107613;1248;97904;-84
2024/03/27 10:19:10;;;;;;;3.20;1.90;;;;;;;23.35;39.25;95266.60;107691;1235;97992;-83
2024/03/27 10:21:37;;;;;;;4.60;2.30;;;;;;;23.46;37.91;95263.15;107913;1241;99224;-84
2024/03/27 10:24:06;;;;;;;4.50;1.80;;;;;;;23.34;37.03;95269.94;107858;1243;98002;-83
2024/03/27 10:26:34;;;;;;;4.30;2.20;;;;;;;23.26;36.23;95276.43;111154;1235;95703;-82
2024/03/27 10:29:01;;;;;;;4.30;1.60;;;;;;;23.29;36.64;95279.98;111126;1235;95730;-82
2024/03/27 10:31:28;;;;;;;5.70;2.10;;;;;;;23.27;36.13;95281.04;111124;1235;96278;-83
2024/03/27 10:33:54;;;;;;;2.70;1.80;;;;;;;23.27;36.72;95273.11;109329;1240;97997;-82
2024/03/27 10:36:25;;;;;;;4.80;1.70;;;;;;;23.21;36.94;95266.75;108167;1241;99071;-83
2024/03/27 10:38:57;;;;;;;3.10;1.60;;;;;;;23.12;36.77;95267.71;107924;1250;101551;-83
2024/03/27 10:41:27;;;;;;;2.60;1.90;;;;;;;23.34;37.44;95257.41;108042;1245;99178;-83
2024/03/27 10:43:58;;;;;;;5.60;1.90;;;;;;;23.57;36.59;95256.14;107838;1240;97947;-83
2024/03/27 10:46:25;;;;;;;3.50;1.80;;;;;;;23.76;36.79;95250.89;107608;1241;98768;-83
2024/03/27 10:48:53;;;;;;;2.50;1.70;;;;;;;23.93;36.24;95247.48;107870;1238;103169;-83
2024/03/27 10:51:21;;;;;;;5.10;1.70;;;;;;;24.11;36.48;95248.32;107848;1240;100564;-82
2024/03/27 10:53:49;;;;;;;3.90;2.10;;;;;;;24.28;35.95;95241.34;107854;1247;99698;-82
2024/03/27 10:56:17;;;;;;;3.40;1.90;;;;;;;24.35;35.82;95236.29;107841;1242;97911;-83
2024/03/27 10:58:46;;;;;;;3.00;1.90;;;;;;;24.22;35.72;95232.02;107866;1240;98347;-83
2024/03/27 11:01:13;;;;;;;2.90;1.80;;;;;;;24.18;35.62;95230.48;107922;1240;102491;-83
2024/03/27 11:03:41;;;;;;;1.80;1.50;;;;;;;24.30;36.09;95228.95;107525;1248;97928;-86
2024/03/27 11:06:13;;;;;;;1.70;1.50;;;;;;;24.39;34.91;95236.86;107510;1240;99746;-85
2024/03/27 11:08:42;;;;;;;2.40;1.40;;;;;;;24.28;34.07;95236.55;107620;1235;97934;-83
2024/03/27 11:11:15;;;;;;;4.50;1.80;;;;;;;24.30;34.46;95233.23;107700;1239;98431;-82
2024/03/27 11:13:45;;;;;;;2.60;1.60;;;;;;;24.49;35.09;95235.00;107824;1241;103541;-82
2024/03/27 11:16:12;;;;;;;2.70;1.80;;;;;;;24.68;35.12;95234.66;107874;1240;101236;-82
2024/03/27 11:18:43;;;;;;;2.80;2.00;;;;;;;24.75;34.83;95235.72;107864;1235;99256;-82
2024/03/27 11:21:12;;;;;;;3.60;2.10;;;;;;;24.85;34.89;95234.86;107830;1249;99043;-82